Hauptseite
METAR-TAF:

METAR-TAF

Flughäfen :

Pond Inlet, Nunavut, Kanada

Breite: 72-42N, Länge: 077-58W, Höhe: 59 m

Beobachtung

Neuester Wetterbericht von vor 22 Minuten, um 16:00 UTC
Wind 8 kt aus Süd/Südost
Temperatur -35°C
Luftfeuchtigkeit 74%
Luftdruck 1009 hPa
Sichtweite: 12.9 km
Himmel klar

METAR: CYIO 251600Z AUTO 15008KT 8SM CLR M35/M38 A2979 RMK SLP103

Zeit: 11:22 (16:22 UTC)

Prognose

Neuester Wetterbericht von vor 3 Stunden und 44 Minuten, um 12:38 UTC
Gültige Prognose vom 25 um 13 UTC bis 26 um 01 UTC
Wind 7 kt aus Süd
Sichtweite: 10 km
Himmel klar

TAF: CYIO 251238Z 2513/2601 18007KT P6SM SKC RMK FCST BASED ON AUTO OBS. NXT FCST BY 251900Z

Wetterbeobachtungen und Prognosen von mehr als 4000 Flughäfen (METAR und TAF Bericht).

Die verfügbaren Stationen werden durch gelbe und rote Markierungen auf der Karte dargestellt.

Führen Sie die Maus auf sie, um den Namen der Station zu sehen.

Darauf klicken, um die Beobachtung von Wetterbeobachtungen und Prognosen zu sehen.

Um die Karte zu ändern : klicken Sie auf den grünen Tasten mit einem schwarzen Kreuz Zum Vergrößern, auf den grünen Button mit einem Gedankenstrich zu verkleinern, oder auf die grünen Pfeile für benachbarte Karten.


METAR-TAF: